Time;durP1;ratioP1;P1;durP2;ratioP2;P2;SDS_P1;SDS_P2;PMS_P1;PMS_P2;Temp;Humidity;BMP_temperature;BMP_pressure;BME280_temperature;BME280_humidity;BME280_pressure;Samples;Min_cycle;Max_cycle;Signal;HPM_P1;HPM_P2
2024/02/18 00:00:07;;;;;;;0.63;0.50;;;22.00;42.80;;;;;;5067667;28;20040;-34
2024/02/18 00:02:34;;;;;;;1.27;0.55;;;22.00;42.90;;;;;;5069015;28;20036;-33
2024/02/18 00:05:14;;;;;;;0.73;0.40;;;22.00;42.80;;;;;;5049628;28;20033;-34
2024/02/18 00:07:40;;;;;;;0.60;0.47;;;22.00;42.70;;;;;;5071442;28;20021;-33
2024/02/18 00:10:07;;;;;;;0.63;0.47;;;22.00;42.60;;;;;;5067462;28;20037;-32
2024/02/18 00:12:33;;;;;;;0.43;0.40;;;22.00;42.50;;;;;;5065268;28;20602;-33
2024/02/18 00:14:59;;;;;;;0.35;0.35;;;22.00;42.60;;;;;;5070149;28;20063;-34
2024/02/18 00:17:25;;;;;;;0.30;0.30;;;22.00;42.70;;;;;;5070057;28;20032;-34
2024/02/18 00:19:51;;;;;;;0.40;0.40;;;22.00;42.70;;;;;;5067493;28;20108;-34
2024/02/18 00:22:17;;;;;;;0.70;0.50;;;22.00;42.70;;;;;;5055752;28;20063;-34
2024/02/18 00:24:44;;;;;;;0.50;0.40;;;22.00;42.60;;;;;;5066302;28;20055;-33
2024/02/18 00:27:10;;;;;;;0.95;0.60;;;22.00;42.50;;;;;;5070199;28;20093;-34
2024/02/18 00:29:36;;;;;;;0.50;0.50;;;22.00;42.40;;;;;;5049663;28;20024;-34
2024/02/18 00:32:03;;;;;;;0.80;0.50;;;22.00;42.60;;;;;;5065492;28;20096;-33
2024/02/18 00:34:30;;;;;;;0.35;0.30;;;22.00;42.60;;;;;;5068691;28;20121;-33
2024/02/18 00:36:56;;;;;;;0.95;0.50;;;22.00;42.60;;;;;;5068656;28;20033;-33
2024/02/18 00:39:22;;;;;;;0.50;0.40;;;22.00;42.50;;;;;;5048903;28;20043;-34
2024/02/18 00:41:48;;;;;;;1.58;0.40;;;22.00;42.50;;;;;;5064073;28;20021;-33
2024/02/18 00:44:15;;;;;;;0.50;0.40;;;21.90;42.20;;;;;;5071645;28;20119;-33
2024/02/18 00:46:41;;;;;;;0.90;0.50;;;21.90;42.40;;;;;;5073997;28;20025;-37
2024/02/18 00:49:07;;;;;;;0.57;0.30;;;21.90;42.50;;;;;;5071720;28;20036;-34
2024/02/18 00:51:33;;;;;;;1.85;0.47;;;22.00;42.50;;;;;;5074511;28;20101;-33
2024/02/18 00:53:59;;;;;;;0.88;0.47;;;22.00;42.50;;;;;;5082211;28;20044;-34
2024/02/18 00:56:25;;;;;;;0.63;0.50;;;21.90;42.30;;;;;;5075815;28;20448;-34
2024/02/18 00:58:55;;;;;;;2.63;0.50;;;21.90;42.20;;;;;;5082340;28;20016;-34
2024/02/18 01:01:21;;;;;;;0.38;0.30;;;21.90;42.30;;;;;;5077096;28;20029;-33
2024/02/18 01:03:47;;;;;;;0.75;0.40;;;21.90;42.40;;;;;;5079660;28;20080;-33
2024/02/18 01:06:13;;;;;;;0.60;0.50;;;21.90;42.40;;;;;;5080499;28;20115;-33
2024/02/18 01:08:39;;;;;;;0.40;0.40;;;21.90;42.40;;;;;;5076821;28;20059;-34
2024/02/18 01:11:05;;;;;;;0.93;0.60;;;21.90;42.30;;;;;;5080589;28;20028;-33
2024/02/18 01:13:32;;;;;;;1.63;0.60;;;21.90;42.20;;;;;;5076729;28;20036;-34
2024/02/18 01:15:58;;;;;;;0.50;0.50;;;21.90;42.10;;;;;;5082659;28;20032;-34
2024/02/18 01:18:24;;;;;;;0.38;0.35;;;21.90;42.20;;;;;;5074740;28;20063;-33
2024/02/18 01:20:51;;;;;;;0.60;0.30;;;21.90;42.30;;;;;;5081414;28;20036;-33
2024/02/18 01:23:17;;;;;;;0.98;0.45;;;21.90;42.30;;;;;;5085329;28;20027;-33
2024/02/18 01:25:43;;;;;;;1.02;0.70;;;21.90;42.20;;;;;;5084962;28;20032;-34
2024/02/18 01:28:09;;;;;;;0.55;0.50;;;21.90;42.20;;;;;;5085180;28;20028;-34
2024/02/18 01:30:35;;;;;;;1.08;0.40;;;21.90;42.10;;;;;;5078397;28;20143;-33
2024/02/18 01:33:01;;;;;;;0.70;0.52;;;21.90;42.10;;;;;;5076999;28;20036;-33
2024/02/18 01:35:28;;;;;;;0.50;0.40;;;21.90;42.20;;;;;;5084952;28;20036;-33
2024/02/18 01:37:55;;;;;;;0.40;0.40;;;21.90;42.20;;;;;;5083636;28;20023;-33
2024/02/18 01:40:21;;;;;;;0.57;0.40;;;21.90;42.20;;;;;;5084846;28;20132;-33
2024/02/18 01:42:47;;;;;;;0.40;0.40;;;21.90;42.20;;;;;;5085653;28;20058;-34
2024/02/18 01:45:13;;;;;;;0.57;0.52;;;21.90;42.10;;;;;;5085235;28;20064;-34
2024/02/18 01:47:41;;;;;;;1.17;0.40;;;21.80;41.90;;;;;;5085878;28;20377;-33
2024/02/18 01:50:08;;;;;;;0.47;0.40;;;21.80;42.00;;;;;;5066959;28;20052;-33
2024/02/18 01:52:35;;;;;;;0.50;0.50;;;21.90;42.20;;;;;;5083431;28;20025;-33
2024/02/18 01:55:01;;;;;;;0.40;0.38;;;21.90;42.20;;;;;;5066819;28;20044;-33
2024/02/18 01:57:29;;;;;;;1.08;0.47;;;21.90;42.10;;;;;;5084024;28;20025;-33
2024/02/18 01:59:59;;;;;;;0.60;0.50;;;21.80;42.00;;;;;;5065691;28;20042;-33
2024/02/18 02:02:25;;;;;;;0.82;0.40;;;21.80;41.80;;;;;;5080931;28;20024;-33
2024/02/18 02:04:52;;;;;;;0.55;0.50;;;21.80;42.00;;;;;;5082977;28;20461;-34
2024/02/18 02:07:19;;;;;;;0.40;0.40;;;21.80;42.10;;;;;;5083226;28;20033;-34
2024/02/18 02:09:46;;;;;;;1.02;0.50;;;21.80;42.00;;;;;;5062402;28;20029;-34
2024/02/18 02:12:12;;;;;;;0.40;0.40;;;21.80;42.00;;;;;;5084436;28;20033;-33
2024/02/18 02:14:38;;;;;;;0.45;0.45;;;21.80;41.90;;;;;;5081526;28;20036;-33
2024/02/18 02:17:05;;;;;;;1.25;0.47;;;21.80;41.70;;;;;;5082467;28;20028;-32
2024/02/18 02:19:31;;;;;;;0.85;0.60;;;21.80;41.80;;;;;;5077879;28;20534;-34
2024/02/18 02:21:57;;;;;;;0.60;0.55;;;21.80;41.90;;;;;;5072394;28;20040;-34
2024/02/18 02:24:23;;;;;;;0.65;0.47;;;21.80;41.90;;;;;;5084330;28;20024;-34
2024/02/18 02:26:51;;;;;;;1.08;0.60;;;21.80;41.80;;;;;;5077802;28;20056;-34
2024/02/18 02:29:17;;;;;;;1.08;0.50;;;21.80;41.80;;;;;;5062132;28;20028;-33
2024/02/18 02:31:44;;;;;;;1.15;0.47;;;21.80;41.60;;;;;;5084753;28;20035;-33
2024/02/18 02:34:11;;;;;;;1.60;0.60;;;21.70;41.50;;;;;;5080812;28;20036;-33
2024/02/18 02:36:38;;;;;;;;;;;21.80;41.70;;;;;;5083651;28;20036;-33
2024/02/18 02:39:04;;;;;;;0.77;0.50;;;21.80;41.80;;;;;;5079053;28;19919;-33
2024/02/18 02:41:30;;;;;;;0.50;0.45;;;21.80;41.80;;;;;;5071756;28;20024;-33
2024/02/18 02:43:56;;;;;;;0.52;0.50;;;21.80;41.80;;;;;;5077909;28;20045;-33
2024/02/18 02:46:23;;;;;;;0.85;0.50;;;21.80;41.80;;;;;;5077732;28;20025;-33
2024/02/18 02:48:49;;;;;;;0.52;0.40;;;21.80;41.70;;;;;;5079419;28;20099;-33
2024/02/18 02:51:16;;;;;;;0.60;0.60;;;21.70;42.20;;;;;;5075403;28;20056;-34
2024/02/18 02:53:42;;;;;;;0.50;0.47;;;21.80;41.80;;;;;;5083373;28;20040;-33
2024/02/18 02:56:08;;;;;;;0.40;0.40;;;21.80;41.80;;;;;;5081996;28;20054;-33
2024/02/18 02:58:34;;;;;;;0.45;0.40;;;21.80;41.90;;;;;;5081532;28;20074;-33
2024/02/18 03:01:00;;;;;;;0.75;0.50;;;21.80;41.80;;;;;;5077245;28;20024;-33
2024/02/18 03:03:26;;;;;;;0.57;0.50;;;21.80;41.70;;;;;;5082621;28;20028;-33
2024/02/18 03:05:53;;;;;;;1.10;0.50;;;21.80;41.70;;;;;;5076485;28;20120;-33
2024/02/18 03:08:19;;;;;;;0.63;0.35;;;21.80;41.80;;;;;;5079490;28;20040;-33
2024/02/18 03:10:45;;;;;;;1.13;0.40;;;21.80;41.90;;;;;;5075424;28;20084;-32
2024/02/18 03:13:11;;;;;;;0.50;0.40;;;21.80;41.90;;;;;;5080829;28;20037;-33
2024/02/18 03:15:37;;;;;;;0.60;0.60;;;21.80;41.90;;;;;;5082320;28;20060;-33
2024/02/18 03:18:04;;;;;;;0.60;0.40;;;21.80;41.80;;;;;;5083477;28;20058;-33
2024/02/18 03:20:30;;;;;;;0.50;0.40;;;21.80;41.70;;;;;;5068068;28;20036;-32
2024/02/18 03:22:56;;;;;;;0.73;0.40;;;21.80;41.70;;;;;;5072667;28;20033;-33
2024/02/18 03:25:23;;;;;;;0.57;0.50;;;21.80;41.90;;;;;;5082537;28;20060;-34
2024/02/18 03:27:49;;;;;;;0.73;0.43;;;21.80;41.90;;;;;;5083913;28;20035;-34
2024/02/18 03:30:15;;;;;;;0.98;0.60;;;21.80;41.90;;;;;;5079607;28;20032;-33
2024/02/18 03:32:41;;;;;;;0.52;0.50;;;21.80;41.80;;;;;;5083019;28;20531;-33
2024/02/18 03:35:08;;;;;;;0.93;0.50;;;21.80;41.70;;;;;;5082938;28;20049;-34
2024/02/18 03:37:34;;;;;;;1.58;0.52;;;21.80;41.70;;;;;;5075142;28;20025;-34
2024/02/18 03:40:00;;;;;;;0.40;0.40;;;21.80;42.40;;;;;;5076351;28;21407;-34
2024/02/18 03:42:26;;;;;;;0.60;0.43;;;21.80;41.80;;;;;;5082266;28;20025;-34
2024/02/18 03:44:52;;;;;;;0.60;0.40;;;21.80;41.80;;;;;;5083415;28;20032;-34
2024/02/18 03:47:23;;;;;;;0.40;0.40;;;21.80;41.70;;;;;;5056735;28;20049;-34
2024/02/18 03:49:50;;;;;;;0.93;0.50;;;21.80;41.60;;;;;;5083384;28;20089;-33
2024/02/18 03:52:16;;;;;;;0.50;0.40;;;21.80;41.60;;;;;;5050028;28;20025;-34
2024/02/18 03:55:02;;;;;;;2.05;0.43;;;21.80;41.70;;;;;;5050619;28;20056;-33
2024/02/18 03:57:28;;;;;;;0.45;0.40;;;21.80;41.70;;;;;;5059853;28;20052;-34
2024/02/18 03:59:55;;;;;;;0.43;0.40;;;21.80;41.70;;;;;;5055954;28;20093;-34
2024/02/18 04:02:21;;;;;;;0.47;0.40;;;21.80;41.60;;;;;;5048269;28;20026;-35
2024/02/18 04:04:47;;;;;;;0.40;0.40;;;21.80;41.50;;;;;;5055249;28;20025;-35
2024/02/18 04:07:13;;;;;;;0.73;0.55;;;21.70;41.50;;;;;;5029860;28;20046;-34
2024/02/18 04:09:40;;;;;;;0.65;0.50;;;21.80;41.70;;;;;;5031854;28;20066;-34
2024/02/18 04:12:07;;;;;;;0.55;0.40;;;21.80;41.70;;;;;;5029851;28;20051;-34
2024/02/18 04:14:33;;;;;;;0.50;0.47;;;21.80;41.70;;;;;;5028797;28;20076;-34
2024/02/18 04:17:01;;;;;;;0.50;0.50;;;21.80;41.60;;;;;;5032827;28;20485;-34
2024/02/18 04:19:27;;;;;;;1.23;0.50;;;21.80;41.50;;;;;;5037678;28;20073;-34
2024/02/18 04:21:53;;;;;;;0.60;0.47;;;21.80;41.60;;;;;;5034529;28;20064;-34
2024/02/18 04:24:19;;;;;;;0.57;0.43;;;21.80;41.80;;;;;;5038325;28;20037;-34
2024/02/18 04:26:45;;;;;;;0.40;0.35;;;21.80;41.80;;;;;;5040118;28;20418;-34
2024/02/18 04:29:11;;;;;;;1.10;0.60;;;21.80;41.80;;;;;;5032356;28;20037;-33
2024/02/18 04:31:40;;;;;;;0.50;0.40;;;21.80;41.80;;;;;;5041817;28;20493;-34
2024/02/18 04:34:06;;;;;;;1.00;0.60;;;21.80;41.70;;;;;;5042353;28;20041;-33
2024/02/18 04:36:32;;;;;;;1.05;0.50;;;21.80;41.60;;;;;;5054097;28;20103;-34
2024/02/18 04:38:59;;;;;;;0.80;0.43;;;21.80;41.70;;;;;;5050936;28;20521;-34
2024/02/18 04:41:25;;;;;;;0.38;0.38;;;21.80;41.80;;;;;;5051595;28;20051;-33
2024/02/18 04:43:51;;;;;;;0.55;0.55;;;21.80;41.80;;;;;;5060577;28;20029;-33
2024/02/18 04:46:17;;;;;;;0.88;0.60;;;21.80;41.70;;;;;;5060876;28;20033;-33
2024/02/18 04:48:44;;;;;;;1.92;0.50;;;21.80;41.70;;;;;;5043358;28;20050;-37
2024/02/18 04:51:11;;;;;;;0.57;0.50;;;21.80;41.60;;;;;;5060885;28;20026;-33
2024/02/18 04:53:37;;;;;;;0.90;0.60;;;21.80;41.60;;;;;;5060239;28;20032;-33
2024/02/18 04:56:04;;;;;;;1.75;0.43;;;21.80;41.70;;;;;;5058005;28;20466;-33
2024/02/18 04:58:30;;;;;;;0.50;0.50;;;21.80;41.80;;;;;;5062627;28;20036;-33
2024/02/18 05:00:56;;;;;;;0.50;0.50;;;21.80;41.80;;;;;;5061417;28;20049;-35
2024/02/18 05:03:22;;;;;;;0.90;0.50;;;21.80;41.60;;;;;;5059011;28;20029;-33
2024/02/18 05:05:48;;;;;;;0.57;0.43;;;21.80;41.60;;;;;;5061741;28;20045;-34
2024/02/18 05:08:15;;;;;;;0.75;0.50;;;21.80;41.50;;;;;;5061243;28;20044;-34
2024/02/18 05:10:41;;;;;;;0.40;0.40;;;21.80;41.60;;;;;;5062131;28;20098;-34
2024/02/18 05:13:07;;;;;;;1.17;0.50;;;21.80;42.30;;;;;;5057062;28;20382;-35
2024/02/18 05:15:33;;;;;;;0.50;0.50;;;21.80;41.70;;;;;;5056375;28;20033;-34
2024/02/18 05:17:59;;;;;;;0.77;0.50;;;21.80;41.70;;;;;;5058468;28;20032;-32
2024/02/18 05:20:25;;;;;;;0.50;0.50;;;21.80;41.60;;;;;;5060537;28;20025;-33
2024/02/18 05:22:52;;;;;;;0.50;0.40;;;21.80;41.40;;;;;;5061383;28;20021;-33
2024/02/18 05:25:18;;;;;;;0.40;0.40;;;21.80;41.60;;;;;;5060198;28;20044;-34
2024/02/18 05:27:44;;;;;;;0.43;0.43;;;21.80;41.60;;;;;;5061600;28;20028;-33
2024/02/18 05:30:11;;;;;;;0.85;0.50;;;21.80;41.70;;;;;;5053567;28;20053;-33
2024/02/18 05:32:37;;;;;;;0.93;0.50;;;21.80;41.60;;;;;;5061840;28;20048;-33
2024/02/18 05:35:04;;;;;;;0.40;0.30;;;21.80;41.60;;;;;;5057492;28;20048;-32
2024/02/18 05:37:30;;;;;;;0.45;0.40;;;21.80;41.50;;;;;;5061844;28;20025;-33
2024/02/18 05:39:56;;;;;;;0.40;0.40;;;21.80;41.50;;;;;;5055827;28;20040;-34
2024/02/18 05:42:22;;;;;;;2.10;0.47;;;21.80;41.70;;;;;;5057690;28;20032;-34
2024/02/18 05:44:48;;;;;;;0.60;0.40;;;21.80;41.70;;;;;;5057485;28;20075;-34
2024/02/18 05:47:15;;;;;;;0.52;0.40;;;21.80;41.80;;;;;;5059983;28;20043;-34
2024/02/18 05:49:41;;;;;;;0.50;0.50;;;21.80;41.70;;;;;;5052967;28;20435;-34
2024/02/18 05:52:09;;;;;;;0.70;0.50;;;21.80;41.60;;;;;;5061214;28;20028;-33
2024/02/18 05:54:35;;;;;;;0.50;0.40;;;21.80;41.50;;;;;;5057910;28;20037;-33
2024/02/18 05:57:02;;;;;;;0.88;0.55;;;21.80;41.50;;;;;;5054809;28;20517;-32
2024/02/18 05:59:28;;;;;;;0.40;0.40;;;21.80;41.60;;;;;;5055002;28;20037;-33
2024/02/18 06:01:54;;;;;;;2.65;0.43;;;21.80;41.70;;;;;;5059185;28;20104;-33
2024/02/18 06:04:20;;;;;;;1.23;0.40;;;21.80;41.70;;;;;;5064971;28;20033;-35
2024/02/18 06:06:46;;;;;;;0.88;0.47;;;21.80;41.50;;;;;;5078755;28;20051;-33
2024/02/18 06:09:12;;;;;;;1.25;0.60;;;21.80;41.40;;;;;;5082596;28;20499;-33
2024/02/18 06:11:39;;;;;;;0.70;0.50;;;21.70;41.40;;;;;;5085307;28;20036;-33
2024/02/18 06:14:05;;;;;;;0.50;0.40;;;21.70;41.40;;;;;;5078143;28;20568;-33
2024/02/18 06:16:31;;;;;;;0.50;0.40;;;21.80;41.60;;;;;;5059566;28;20032;-33
2024/02/18 06:18:57;;;;;;;0.50;0.50;;;21.80;41.60;;;;;;5081022;28;20048;-33
2024/02/18 06:21:24;;;;;;;1.70;0.68;;;21.80;41.50;;;;;;5077455;28;20032;-34
2024/02/18 06:23:55;;;;;;;0.73;0.63;;;21.80;41.30;;;;;;5084523;28;20028;-33
2024/02/18 06:26:22;;;;;;;0.75;0.40;;;21.70;41.20;;;;;;5084118;28;20651;-34
2024/02/18 06:28:48;;;;;;;0.50;0.40;;;21.70;41.30;;;;;;5063556;28;20482;-34
2024/02/18 06:31:14;;;;;;;0.35;0.35;;;21.70;41.40;;;;;;5082003;28;20120;-34
2024/02/18 06:33:44;;;;;;;0.50;0.43;;;21.70;41.50;;;;;;5084744;28;20453;-34
2024/02/18 06:36:10;;;;;;;1.40;0.50;;;21.80;41.40;;;;;;5082779;28;20039;-34
2024/02/18 06:38:40;;;;;;;0.45;0.40;;;21.70;41.20;;;;;;5080533;28;20020;-34
2024/02/18 06:41:06;;;;;;;0.95;0.60;;;21.70;41.20;;;;;;5083677;28;20041;-34
2024/02/18 06:43:32;;;;;;;1.00;0.50;;;21.70;41.30;;;;;;5071073;28;20124;-34
2024/02/18 06:45:58;;;;;;;0.70;0.50;;;21.70;41.40;;;;;;5074014;28;20043;-34
2024/02/18 06:48:24;;;;;;;0.60;0.50;;;21.70;41.40;;;;;;5071480;28;20075;-34
2024/02/18 06:50:50;;;;;;;0.40;0.40;;;21.70;41.30;;;;;;5065658;28;20047;-34
2024/02/18 06:53:17;;;;;;;0.40;0.40;;;21.70;41.20;;;;;;5068527;28;20458;-34
2024/02/18 06:55:44;;;;;;;1.00;0.50;;;21.70;41.10;;;;;;5074031;28;20029;-34
2024/02/18 06:58:11;;;;;;;0.57;0.47;;;21.70;41.20;;;;;;5073516;28;20040;-34
2024/02/18 07:00:37;;;;;;;0.98;0.60;;;21.70;41.30;;;;;;5069517;28;20477;-34
2024/02/18 07:03:06;;;;;;;0.70;0.40;;;21.70;41.40;;;;;;5071283;28;20033;-34
2024/02/18 07:05:32;;;;;;;0.45;0.38;;;21.70;41.30;;;;;;5073305;28;20647;-34
2024/02/18 07:07:59;;;;;;;0.70;0.40;;;21.70;41.20;;;;;;5076534;28;20028;-34
2024/02/18 07:10:25;;;;;;;0.50;0.47;;;21.70;41.10;;;;;;5072888;28;20029;-34
2024/02/18 07:12:51;;;;;;;0.35;0.32;;;21.70;41.20;;;;;;5074200;28;20300;-33
2024/02/18 07:15:17;;;;;;;0.50;0.40;;;21.70;41.30;;;;;;5054694;28;20066;-34
2024/02/18 07:17:43;;;;;;;1.50;0.50;;;21.70;41.40;;;;;;5075617;28;20039;-33
2024/02/18 07:20:10;;;;;;;0.35;0.30;;;21.70;41.30;;;;;;5068019;28;20096;-34
2024/02/18 07:22:36;;;;;;;0.40;0.40;;;21.70;41.20;;;;;;5071936;28;20056;-34
2024/02/18 07:25:02;;;;;;;0.57;0.40;;;21.70;41.10;;;;;;5074141;28;20083;-34
2024/02/18 07:27:28;;;;;;;0.57;0.30;;;21.70;41.10;;;;;;5073568;28;20032;-34
2024/02/18 07:29:54;;;;;;;0.45;0.40;;;21.70;41.30;;;;;;5068298;28;20317;-34
2024/02/18 07:32:21;;;;;;;0.52;0.50;;;21.70;41.30;;;;;;5073036;28;20032;-33
2024/02/18 07:34:49;;;;;;;0.60;0.50;;;21.70;41.40;;;;;;5073215;28;20115;-34
2024/02/18 07:37:15;;;;;;;1.35;0.50;;;21.70;41.30;;;;;;5052262;28;20149;-33
2024/02/18 07:39:42;;;;;;;0.60;0.50;;;21.70;41.20;;;;;;5069375;28;20036;-34
2024/02/18 07:42:08;;;;;;;0.70;0.50;;;21.70;41.20;;;;;;5070558;28;20111;-33
2024/02/18 07:44:34;;;;;;;0.55;0.52;;;21.70;41.30;;;;;;5073258;28;20086;-33
2024/02/18 07:47:00;;;;;;;0.43;0.30;;;21.70;41.40;;;;;;5074990;28;20055;-33
2024/02/18 07:49:26;;;;;;;0.63;0.40;;;21.70;41.40;;;;;;5070499;28;20028;-34
2024/02/18 07:51:52;;;;;;;0.40;0.40;;;21.70;41.60;;;;;;5068194;28;21503;-33
2024/02/18 07:54:18;;;;;;;0.50;0.50;;;21.70;41.20;;;;;;5071687;28;20040;-33
2024/02/18 07:56:45;;;;;;;0.40;0.40;;;21.70;41.20;;;;;;5068002;28;20020;-33
2024/02/18 07:59:16;;;;;;;0.60;0.45;;;21.70;41.30;;;;;;5069270;28;20045;-33
2024/02/18 08:01:44;;;;;;;0.77;0.60;;;21.70;41.40;;;;;;5070438;28;20493;-33
2024/02/18 08:04:11;;;;;;;0.30;0.30;;;21.70;41.40;;;;;;5074811;28;20037;-33
2024/02/18 08:06:37;;;;;;;0.68;0.40;;;21.70;41.40;;;;;;5072374;28;20037;-34
2024/02/18 08:09:03;;;;;;;0.40;0.40;;;21.70;41.20;;;;;;5056164;28;20106;-33
2024/02/18 08:11:31;;;;;;;0.55;0.50;;;21.70;41.20;;;;;;5066137;28;20040;-34
2024/02/18 08:13:57;;;;;;;0.65;0.50;;;21.70;41.40;;;;;;5067876;28;20060;-33
2024/02/18 08:16:26;;;;;;;0.40;0.40;;;21.70;41.50;;;;;;5066449;28;20035;-33
2024/02/18 08:18:54;;;;;;;0.50;0.40;;;21.70;41.50;;;;;;5066537;28;20032;-33
2024/02/18 08:21:20;;;;;;;0.73;0.30;;;21.70;41.40;;;;;;5065609;28;20084;-33
2024/02/18 08:23:46;;;;;;;0.47;0.40;;;21.70;41.30;;;;;;5064024;28;20090;-34
2024/02/18 08:26:25;;;;;;;1.25;0.40;;;21.70;41.20;;;;;;5069661;28;20028;-33
2024/02/18 08:28:51;;;;;;;0.38;0.38;;;21.60;41.30;;;;;;5066073;28;20097;-42
2024/02/18 08:31:17;;;;;;;0.30;0.30;;;21.70;41.50;;;;;;5072598;28;20032;-33
2024/02/18 08:33:47;;;;;;;0.40;0.30;;;21.70;41.60;;;;;;5067354;28;20063;-33
2024/02/18 08:36:14;;;;;;;1.80;0.30;;;21.70;41.60;;;;;;5065190;28;20028;-33
2024/02/18 08:38:40;;;;;;;0.53;0.33;;;21.70;41.40;;;;;;5071300;28;20035;-33
2024/02/18 08:41:07;;;;;;;1.30;0.40;;;21.70;41.40;;;;;;5068105;28;20084;-33
2024/02/18 08:43:33;;;;;;;0.30;0.30;;;21.60;41.30;;;;;;5068938;28;20048;-33
2024/02/18 08:45:59;;;;;;;0.30;0.30;;;21.60;41.40;;;;;;5078860;28;20123;-33
2024/02/18 08:48:26;;;;;;;0.60;0.40;;;21.70;41.60;;;;;;5081265;28;20106;-33
2024/02/18 08:50:52;;;;;;;0.60;0.43;;;21.70;41.60;;;;;;5081813;28;20021;-33
2024/02/18 08:53:18;;;;;;;0.50;0.40;;;21.70;41.50;;;;;;5081558;28;20036;-33
2024/02/18 08:55:45;;;;;;;0.40;0.40;;;21.70;41.40;;;;;;5079957;28;20032;-34
2024/02/18 08:58:11;;;;;;;;;;;21.70;41.40;;;;;;5079102;28;20485;-34
2024/02/18 09:00:37;;;;;;;0.60;0.40;;;21.60;41.40;;;;;;5072732;28;19908;-34
2024/02/18 09:03:03;;;;;;;0.35;0.35;;;21.70;41.60;;;;;;5081316;28;20033;-34
2024/02/18 09:05:30;;;;;;;0.35;0.32;;;21.70;41.60;;;;;;5080250;28;20037;-34
2024/02/18 09:07:56;;;;;;;0.38;0.35;;;21.70;41.60;;;;;;5078081;28;20047;-34
2024/02/18 09:10:22;;;;;;;0.57;0.40;;;21.70;41.50;;;;;;5080661;28;20032;-34
2024/02/18 09:12:48;;;;;;;0.50;0.30;;;21.70;41.40;;;;;;5080453;28;20040;-34
2024/02/18 09:15:14;;;;;;;1.17;0.47;;;21.60;41.40;;;;;;5080142;28;20100;-41
2024/02/18 09:17:40;;;;;;;7.43;0.77;;;21.60;41.60;;;;;;5075026;28;20020;-34
2024/02/18 09:20:07;;;;;;;1.08;0.40;;;21.70;41.70;;;;;;5081322;28;20033;-34
2024/02/18 09:22:53;;;;;;;2.45;0.47;;;21.70;41.70;;;;;;5077305;28;20016;-35
2024/02/18 09:25:19;;;;;;;0.93;0.63;;;21.70;41.70;;;;;;4979032;28;20132;-34
2024/02/18 09:27:45;;;;;;;0.30;0.30;;;21.70;41.60;;;;;;4979283;28;20043;-33
2024/02/18 09:30:12;;;;;;;0.50;0.40;;;21.70;41.60;;;;;;4977073;28;20039;-34
2024/02/18 09:32:39;;;;;;;0.43;0.40;;;21.70;41.70;;;;;;4979763;28;20041;-34
2024/02/18 09:35:07;;;;;;;0.50;0.50;;;21.70;41.90;;;;;;4979331;28;20103;-34
2024/02/18 09:37:33;;;;;;;0.30;0.30;;;21.70;41.80;;;;;;4974838;28;20174;-34
2024/02/18 09:39:59;;;;;;;0.90;0.52;;;21.70;41.60;;;;;;4976667;28;20054;-35
2024/02/18 09:42:26;;;;;;;0.70;0.50;;;21.70;41.50;;;;;;4976497;28;20069;-34
2024/02/18 09:44:52;;;;;;;0.32;0.30;;;21.60;41.50;;;;;;4982080;28;20059;-34
2024/02/18 09:47:18;;;;;;;0.70;0.40;;;21.60;41.70;;;;;;4965561;28;20032;-34
2024/02/18 09:49:45;;;;;;;0.40;0.40;;;21.70;41.90;;;;;;4982588;28;20640;-34
2024/02/18 09:52:13;;;;;;;0.30;0.30;;;21.70;41.80;;;;;;4981671;28;20042;-34
2024/02/18 09:54:39;;;;;;;0.40;0.40;;;21.70;41.70;;;;;;4981728;28;20039;-34
2024/02/18 09:57:06;;;;;;;0.57;0.40;;;21.70;41.60;;;;;;4980405;28;20035;-34
2024/02/18 09:59:33;;;;;;;0.20;0.20;;;21.70;41.40;;;;;;4979494;28;20027;-34
2024/02/18 10:01:59;;;;;;;0.30;0.30;;;21.70;41.60;;;;;;5012581;28;20043;-34
2024/02/18 10:04:25;;;;;;;0.43;0.38;;;21.70;41.70;;;;;;5084051;28;20032;-34
2024/02/18 10:06:55;;;;;;;0.60;0.40;;;21.70;41.70;;;;;;5084778;28;20440;-35
2024/02/18 10:09:23;;;;;;;0.40;0.30;;;21.70;41.60;;;;;;5026328;28;20021;-34
2024/02/18 10:11:50;;;;;;;0.40;0.40;;;21.70;41.50;;;;;;5081607;28;20114;-34
2024/02/18 10:14:27;;;;;;;0.55;0.40;;;21.70;41.40;;;;;;5066721;28;20037;-34
2024/02/18 10:16:53;;;;;;;0.50;0.30;;;21.70;41.50;;;;;;5081576;28;20040;-34
2024/02/18 10:19:24;;;;;;;0.40;0.40;;;21.70;41.60;;;;;;5084190;28;20070;-34
2024/02/18 10:21:50;;;;;;;0.65;0.43;;;21.70;41.60;;;;;;5084667;28;20032;-34
2024/02/18 10:24:19;;;;;;;0.95;0.40;;;21.70;41.50;;;;;;5077529;28;20101;-34
2024/02/18 10:26:45;;;;;;;0.52;0.47;;;21.70;41.40;;;;;;5084121;28;20055;-34
2024/02/18 10:29:15;;;;;;;0.73;0.38;;;21.70;41.30;;;;;;5047318;28;20071;-34
2024/02/18 10:31:41;;;;;;;0.82;0.40;;;21.60;41.30;;;;;;5083519;28;20035;-34
2024/02/18 10:34:07;;;;;;;0.30;0.30;;;21.70;41.50;;;;;;5074829;28;20037;-34
2024/02/18 10:36:34;;;;;;;0.30;0.30;;;21.70;41.60;;;;;;5083547;28;20021;-35
2024/02/18 10:39:07;;;;;;;1.23;0.40;;;21.70;41.50;;;;;;5076578;28;20032;-34
2024/02/18 10:41:48;;;;;;;0.47;0.40;;;21.70;41.40;;;;;;5072648;28;20058;-34
2024/02/18 10:44:17;;;;;;;0.40;0.38;;;21.70;41.30;;;;;;5075334;28;20549;-34
2024/02/18 10:46:45;;;;;;;0.40;0.40;;;21.70;41.40;;;;;;5045288;28;20032;-34
2024/02/18 10:49:19;;;;;;;0.40;0.40;;;21.70;41.50;;;;;;5060202;28;20040;-34
2024/02/18 10:51:49;;;;;;;0.40;0.30;;;21.70;41.50;;;;;;5083808;28;20048;-34
2024/02/18 10:54:46;;;;;;;0.50;0.40;;;21.70;41.40;;;;;;5083967;28;20616;-34
2024/02/18 10:57:12;;;;;;;0.30;0.30;;;21.70;41.20;;;;;;5082912;28;20074;-35
2024/02/18 11:00:04;;;;;;;0.67;0.40;;;21.70;41.20;;;;;;5076444;28;20035;-34
2024/02/18 11:02:41;;;;;;;0.45;0.30;;;21.70;41.30;;;;;;5080110;28;20039;-34
2024/02/18 11:05:07;;;;;;;0.40;0.40;;;21.70;41.50;;;;;;5062062;28;20040;-34
2024/02/18 11:07:33;;;;;;;0.38;0.38;;;21.70;42.00;;;;;;5037801;28;20041;-34
2024/02/18 11:10:00;;;;;;;0.57;0.40;;;21.70;41.40;;;;;;5029890;28;20029;-34
2024/02/18 11:12:26;;;;;;;0.30;0.30;;;21.70;41.20;;;;;;5045600;28;20025;-34
2024/02/18 11:14:52;;;;;;;0.35;0.30;;;21.70;41.20;;;;;;5056554;28;20036;-35
2024/02/18 11:17:18;;;;;;;0.38;0.25;;;21.70;41.40;;;;;;5045209;28;20093;-34
2024/02/18 11:19:45;;;;;;;0.45;0.40;;;21.70;41.40;;;;;;5063844;28;20040;-34
2024/02/18 11:22:11;;;;;;;0.57;0.40;;;21.70;41.50;;;;;;5063045;28;20615;-34
2024/02/18 11:24:37;;;;;;;0.50;0.40;;;21.70;41.30;;;;;;5063955;28;20037;-34
2024/02/18 11:27:03;;;;;;;0.75;0.32;;;21.70;41.30;;;;;;5063550;28;20033;-34
2024/02/18 11:29:29;;;;;;;0.30;0.30;;;21.70;41.30;;;;;;5061533;28;20025;-34
2024/02/18 11:31:55;;;;;;;0.43;0.30;;;21.70;41.40;;;;;;5058895;28;20021;-34
2024/02/18 11:34:22;;;;;;;0.50;0.38;;;21.70;41.40;;;;;;5062903;28;20138;-34
2024/02/18 11:36:48;;;;;;;0.40;0.38;;;21.70;41.40;;;;;;5044881;28;20043;-34
2024/02/18 11:39:14;;;;;;;0.30;0.30;;;21.70;41.40;;;;;;5063451;28;20075;-37
2024/02/18 11:41:40;;;;;;;0.50;0.35;;;21.70;41.20;;;;;;5061784;28;20025;-34
2024/02/18 11:44:10;;;;;;;0.85;0.40;;;21.70;41.20;;;;;;5044365;28;20033;-34
2024/02/18 11:46:42;;;;;;;0.68;0.40;;;21.70;41.30;;;;;;5056627;28;20032;-34
2024/02/18 11:49:08;;;;;;;0.82;0.30;;;21.70;41.40;;;;;;5061769;28;20036;-35
2024/02/18 11:51:34;;;;;;;0.30;0.30;;;21.70;41.40;;;;;;5051513;28;20025;-34
2024/02/18 11:54:00;;;;;;;0.35;0.30;;;21.70;41.20;;;;;;5045029;28;20116;-34
2024/02/18 11:56:26;;;;;;;0.28;0.20;;;21.70;41.10;;;;;;5059941;28;20124;-35
2024/02/18 11:58:54;;;;;;;0.63;0.40;;;21.70;41.20;;;;;;5056565;28;20024;-35
2024/02/18 12:01:20;;;;;;;0.47;0.47;;;21.70;41.30;;;;;;5055060;28;20033;-34
2024/02/18 12:03:47;;;;;;;0.40;0.40;;;21.70;41.40;;;;;;5060440;28;20037;-33
2024/02/18 12:06:13;;;;;;;0.43;0.43;;;21.70;41.40;;;;;;5064313;28;21159;-33
2024/02/18 12:08:39;;;;;;;0.50;0.40;;;21.70;41.30;;;;;;5081761;28;20039;-34
2024/02/18 12:11:05;;;;;;;0.40;0.20;;;21.70;41.10;;;;;;5082072;28;20037;-34
2024/02/18 12:13:32;;;;;;;0.50;0.30;;;21.70;41.10;;;;;;5059063;28;20040;-34
2024/02/18 12:15:59;;;;;;;0.40;0.40;;;21.70;41.20;;;;;;5077216;28;20037;-34
2024/02/18 12:18:27;;;;;;;0.55;0.47;;;21.70;41.40;;;;;;5077418;28;20058;-34
2024/02/18 12:20:53;;;;;;;0.60;0.30;;;21.70;41.30;;;;;;5058414;28;20028;-35
2024/02/18 12:23:23;;;;;;;0.55;0.38;;;21.70;41.30;;;;;;5077861;28;20040;-34
2024/02/18 12:25:49;;;;;;;0.52;0.40;;;21.70;41.10;;;;;;5081217;28;20426;-34
2024/02/18 12:28:16;;;;;;;0.40;0.40;;;21.70;41.10;;;;;;5056239;28;20020;-34
2024/02/18 12:30:43;;;;;;;1.08;0.40;;;21.70;41.30;;;;;;5070679;28;20035;-34
2024/02/18 12:33:09;;;;;;;0.40;0.40;;;21.70;41.30;;;;;;5081555;28;20052;-34
2024/02/18 12:35:35;;;;;;;0.40;0.20;;;21.70;41.30;;;;;;5074999;28;20036;-34
2024/02/18 12:38:02;;;;;;;0.88;0.40;;;21.70;41.20;;;;;;5057103;28;20055;-34
2024/02/18 12:40:29;;;;;;;2.58;0.50;;;21.70;41.10;;;;;;5077490;28;20039;-34
2024/02/18 12:42:58;;;;;;;0.52;0.30;;;21.70;41.10;;;;;;5057595;28;20035;-34
2024/02/18 12:45:28;;;;;;;0.43;0.30;;;21.70;41.20;;;;;;5074203;28;20097;-34